• Join FlightAware (Why Join?)
  • Login
  • US Flag 
08:22PM EDT


 

Airport Tracker/Info


-or-


 

Live Flight TrackerFlight Track Log ✈ SWA157 ✈ 12-Jun-2013 ✈ KSTL - KPHX

Flight Track Log - Related Links

Times and Time Zones

All times are in EDT time to prevent confusion due to time zone crossing. See the SWA157 flight status page for this flight to view local times or setup timezone preferences in your user account.

Time Position Orientation Groundspeed Altitude Reporting Facility
EDT Latitude Longitude Course Direction KTS MPH feet Rate Location/Type
11:18AM 38.7667 -90.4167 260° West 190 219 2,800  Level Gateway (St. Louis) TRACON
11:19AM 38.7667 -90.4833 270° West 262 302 5,100 2,400 Climbing Gateway (St. Louis) TRACON
11:20AM 38.7203 -90.5258 216° Southwest 260 299 7,300 3,060 Climbing Kansas City Center
11:21AM 38.6528 -90.5933 218° Southwest 261 300 11,000 2,520 Climbing Kansas City Center
11:22AM 38.6075 -90.6894 239° Southwest 300 345 12,600 1,980 Climbing Kansas City Center
11:23AM 38.6455 -91.0833 260° West  Level Estimated
11:23AM 38.5608 -90.7947 240° Southwest 325 374 15,200  Level Kansas City Center
11:24AM 38.5122 -90.9036 240° Southwest 346 398 17,800 2,400 Climbing Kansas City Center
11:25AM 38.4614 -91.0189 241° Southwest 368 423 20,200 1,980 Climbing Kansas City Center
11:26AM 38.3981 -91.1622 241° Southwest 387 445 22,000 840 Climbing Kansas City Center
11:27AM 38.3439 -91.2833 240° Southwest 394 453 22,000  Level Kansas City Center
11:28AM 38.3006 -91.4117 247° West 389 448 22,000 420 Level Kansas City Center
11:29AM 38.2903 -91.5492 265° West 392 451 22,900 1,440 Climbing Kansas City Center
11:30AM 38.2767 -91.6883 263° West 397 457 25,000 1,860 Climbing Kansas City Center
11:31AM 38.2644 -91.8292 264° West 402 463 26,800 1,740 Climbing Kansas City Center
11:32AM 38.2478 -92.0044 263° West 418 481 28,700 1,740 Climbing Kansas City Center
11:33AM 38.2347 -92.1503 264° West 420 483 30,500 1,680 Climbing Kansas City Center
11:34AM 38.2208 -92.2961 263° West 419 482 32,200 1,440 Climbing Kansas City Center
11:35AM 38.2058 -92.4431 263° West 422 486 33,600 1,380 Climbing Kansas City Center
11:36AM 38.1856 -92.5925 260° West 429 494 35,100 1,140 Climbing Kansas City Center
11:37AM 38.1653 -92.7650 262° West 422 486 36,000 900 Climbing Kansas City Center
11:38AM 38.1467 -92.9114 261° West 421 484 37,000 840 Climbing Kansas City Center
11:39AM 38.1283 -93.0586 261° West 423 487 37,800 480 Climbing Kansas City Center
11:40AM 38.1106 -93.2067 261° West 425 489 38,000 60 Climbing Kansas City Center
11:42AM 38.0922 -93.3547 261° West 426 490 38,000  Level Kansas City Center
11:43AM 38.0697 -93.5328 261° West 425 489 38,000  Level Kansas City Center
11:44AM 38.0508 -93.6794 261° West 423 487 38,000  Level Kansas City Center
11:45AM 38.0550 -93.8269 272° West 418 481 38,000  Level Kansas City Center
11:46AM 38.0589 -93.9744 272° West 419 482 38,000  Level Kansas City Center
11:47AM 38.0625 -94.1197 272° West 414 476 38,000  Level Kansas City Center
11:48AM 38.0650 -94.2669 271° West 416 479 38,000  Level Kansas City Center
11:49AM 38.0447 -94.4394 262° West 415 478 38,000  Level Kansas City Center
11:50AM 38.0256 -94.5858 261° West 419 482 38,000  Level Kansas City Center
11:51AM 38.0050 -94.7283 260° West 415 478 38,000  Level Kansas City Center
11:52AM 37.9861 -94.8667 260° West 422 486 38,000  Level Kansas City Center
11:53AM 37.9647 -95.0122 259° West 421 484 38,000  Level Kansas City Center
11:54AM 37.9383 -95.1883 259° West 424 488 38,000  Level Kansas City Center
11:55AM 37.9175 -95.3331 260° West 420 483 38,000  Level Kansas City Center
11:56AM 37.8956 -95.4800 259° West 424 488 38,000  Level Kansas City Center
11:57AM 37.8733 -95.6250 259° West 420 483 38,000  Level Kansas City Center
11:58AM 37.8511 -95.7700 259° West 420 483 38,000  Level Kansas City Center
11:59AM 37.8300 -95.9117 259° West 414 476 38,000  Level Kansas City Center
12:00PM 37.8028 -96.0808 259° West 410 472 38,000  Level Kansas City Center
12:01PM 37.7833 -96.2083 259° West 416 479 38,000  Level Kansas City Center
12:02PM 37.7606 -96.3531 259° West 420 483 38,000  Level Kansas City Center
12:03PM 37.7342 -96.5242 259° West 415 478 38,000  Level Kansas City Center
12:04PM 37.7114 -96.6664 259° West 413 475 38,000  Level Kansas City Center
12:05PM 37.6881 -96.8092 258° West 414 476 38,000  Level Kansas City Center
12:06PM 37.6653 -96.9511 259° West 413 475 38,000  Level Kansas City Center
12:07PM 37.6417 -97.0947 258° West 416 479 38,000  Level Kansas City Center
12:08PM 37.6172 -97.2381 258° West 416 479 38,000  Level Kansas City Center
12:09PM 37.5936 -97.3836 258° West 421 484 38,000  Level Kansas City Center
12:10PM 37.5642 -97.5564 258° West 419 482 38,000  Level Kansas City Center
12:11PM 37.5394 -97.7017 258° West 420 483 38,000  Level Kansas City Center
12:13PM 37.5142 -97.8464 258° West 420 483 38,000  Level Kansas City Center
12:14PM 37.4892 -97.9914 258° West 420 483 38,000  Level Kansas City Center
12:15PM 37.4644 -98.1339 258° West 416 479 38,000  Level Kansas City Center
12:16PM 37.4400 -98.2761 258° West 414 476 38,000  Level Kansas City Center
12:17PM 37.4144 -98.4175 257° West 413 475 38,000  Level Kansas City Center
12:18PM 37.3897 -98.5594 258° West 414 476 38,000  Level Kansas City Center
12:19PM 37.3589 -98.7311 257° West 417 480 38,000  Level Kansas City Center
12:20PM 37.3328 -98.8736 257° West 418 481 38,000  Level Kansas City Center
12:21PM 37.3064 -99.0172 257° West 420 483 38,000  Level Kansas City Center
12:22PM 37.2800 -99.1617 257° West 423 487 38,000  Level Kansas City Center
12:23PM 37.2539 -99.3061 257° West 424 488 38,000  Level Kansas City Center
12:24PM 37.2219 -99.4772 257° West 422 486 38,000  Level Kansas City Center
12:25PM 37.1964 -99.6150 257° West 423 487 38,000  Level Kansas City Center
12:26PM 37.1697 -99.7525 256° West 422 486 38,000  Level Kansas City Center
12:27PM 37.1386 -99.9131 256° West 423 487 38,000  Level Kansas City Center
12:28PM 37.1128 -100.0500 257° West 422 486 38,000  Level Kansas City Center
12:29PM 37.0825 -100.2103 257° West 422 486 38,000  Level Kansas City Center
12:30PM 37.0553 -100.3489 256° West 425 489 38,000  Level Kansas City Center
12:31PM 37.0247 -100.5092 257° West 423 487 38,000  Level Kansas City Center
12:32PM 36.9969 -100.6461 256° West 422 486 38,000  Level Kansas City Center
12:33PM 36.9647 -100.8081 256° West 426 490 38,000  Level Kansas City Center
12:34PM 36.9367 -100.9456 256° West 426 490 38,000  Level Kansas City Center
12:35PM 36.9097 -101.0850 256° West 428 493 38,000  Level Kansas City Center
12:36PM 36.8764 -101.2458 256° West 428 493 38,000  Level Kansas City Center
12:37PM 36.8494 -101.3831 256° West 426 490 38,000  Level Kansas City Center
12:38PM 36.8167 -101.5433 256° West 426 490 38,000 120 Level Kansas City Center
12:39PM 36.7872 -101.6806 255° West 427 491 38,300 600 Climbing Albuquerque Center
12:40PM 36.7594 -101.8164 256° West 424 488 39,200 780 Climbing Albuquerque Center
12:41PM 36.7264 -101.9747 255° West 423 487 40,000 360 Climbing Albuquerque Center
12:42PM 36.6972 -102.1111 255° West 425 489 40,000  Level Albuquerque Center
12:43PM 36.6647 -102.2706 256° West 426 490 40,000  Level Albuquerque Center
12:44PM 36.6331 -102.4122 254° West 427 491 40,000  Level Albuquerque Center
12:46PM 36.6036 -102.5533 255° West 425 489 40,000  Level Albuquerque Center
12:47PM 36.5731 -102.6933 255° West 422 486 40,000  Level Albuquerque Center
12:48PM 36.5425 -102.8336 255° West 422 486 40,000  Level Albuquerque Center
12:49PM 36.5106 -102.9839 255° West 422 486 40,000  Level Albuquerque Center
12:50PM 36.4744 -103.1481 255° West 419 482 40,000  Level Albuquerque Center
12:51PM 36.4433 -103.2875 255° West 417 480 40,000  Level Albuquerque Center
12:52PM 36.4117 -103.4267 254° West 417 480 40,000  Level Albuquerque Center
12:53PM 36.3800 -103.5661 254° West 418 481 40,000  Level Albuquerque Center
12:54PM 36.3494 -103.7044 255° West 415 478 40,000  Level Albuquerque Center
12:55PM 36.3172 -103.8419 254° West 414 476 40,000  Level Albuquerque Center
12:56PM 36.2864 -103.9825 255° West 417 480 40,000  Level Albuquerque Center
12:57PM 36.2489 -104.1442 254° West 417 480 40,000  Level Albuquerque Center
12:58PM 36.2161 -104.2808 253° West 415 478 40,000  Level Albuquerque Center
12:59PM 36.1833 -104.4194 254° West 416 479 40,000  Level Albuquerque Center
01:00PM 36.1514 -104.5564 254° West 414 476 40,000  Level Albuquerque Center
01:01PM 36.1194 -104.6936 254° West 413 475 40,000  Level Albuquerque Center
01:02PM 36.0869 -104.8300 254° West 412 474 40,000  Level Albuquerque Center
01:03PM 36.0475 -104.9911 253° West 417 480 40,000  Level Albuquerque Center
01:04PM 36.0142 -105.1272 253° West 414 476 40,000  Level Albuquerque Center
01:05PM 35.9831 -105.2642 254° West 414 476 40,000  Level Albuquerque Center
01:06PM 35.9494 -105.4008 253° West 413 475 40,000  Level Albuquerque Center
01:07PM 35.9128 -105.5478 253° West 415 478 40,000  Level Albuquerque Center
01:08PM 35.8797 -105.6842 253° West 415 478 40,000  Level Albuquerque Center
01:09PM 35.8464 -105.8211 253° West 417 480 40,000  Level Albuquerque Center
01:10PM 35.8119 -105.9569 253° West 418 481 40,000  Level Albuquerque Center
01:11PM 35.7792 -106.0944 254° West 418 481 40,000  Level Albuquerque Center
01:12PM 35.7400 -106.2539 253° West 418 481 40,000  Level Albuquerque Center
01:13PM 35.7053 -106.3850 252° West 419 482 40,000  Level Albuquerque Center
01:14PM 35.6681 -106.5367 253° West 415 478 40,000  Level Albuquerque Center
01:15PM 35.6358 -106.6644 253° West 417 480 40,000  Level Albuquerque Center
01:17PM 35.6006 -106.7994 252° West 417 480 40,000  Level Albuquerque Center
01:18PM 35.5658 -106.9350 253° West 418 481 40,000  Level Albuquerque Center
01:19PM 35.5233 -107.0975 252° West 420 483 40,000  Level Albuquerque Center
01:20PM 35.4886 -107.2317 252° West 417 480 40,000  Level Albuquerque Center
01:21PM 35.4542 -107.3608 252° West 415 478 40,000  Level Albuquerque Center
01:22PM 35.4133 -107.5133 252° West 418 481 40,000  Level Albuquerque Center
01:23PM 35.3786 -107.6428 252° West 418 481 40,000  Level Albuquerque Center
01:24PM 35.3397 -107.7911 252° West 413 475 40,000  Level Albuquerque Center
01:25PM 35.3050 -107.9181 252° West 409 471 40,000 -300 Level Albuquerque Center
01:26PM 35.2664 -108.0667 252° West 408 470 39,400 -780 Descending Albuquerque Center
01:27PM 35.2308 -108.1936 251° West 410 472 38,500 -1,020 Descending Albuquerque Center
01:28PM 35.1914 -108.3425 252° West 410 472 37,400 -1,020 Descending Albuquerque Center
01:29PM 35.1558 -108.4739 252° West 419 482 36,500 -720 Descending Albuquerque Center
01:30PM 35.1131 -108.6281 251° West 425 489 36,000 -300 Descending Albuquerque Center
01:31PM 35.0756 -108.7575 251° West 424 488 36,000  Level Albuquerque Center
01:32PM 35.0317 -108.8867 247° West 427 491 36,000  Level Albuquerque Center
01:33PM 34.9825 -109.0392 249° West 429 494 36,000  Level Albuquerque Center
01:34PM 34.9403 -109.1703 249° West 431 496 36,000  Level Albuquerque Center
01:35PM 34.8894 -109.3208 248° West 431 496 36,000  Level Albuquerque Center
01:36PM 34.8458 -109.4519 248° West 432 497 36,000  Level Albuquerque Center
01:37PM 34.7936 -109.5994 247° West 428 493 36,000  Level Albuquerque Center
01:38PM 34.7497 -109.7314 248° West 434 499 36,000  Level Albuquerque Center
01:39PM 34.6992 -109.8831 248° West 433 498 36,000  Level Albuquerque Center
01:40PM 34.6517 -110.0103 246° West 432 497 36,000  Level Albuquerque Center
01:41PM 34.5958 -110.1581 245° Southwest 431 496 36,000  Level Albuquerque Center
01:42PM 34.5494 -110.2828 246° West 427 491 36,000  Level Albuquerque Center
01:43PM 34.5008 -110.4094 245° Southwest 429 494 36,000 -960 Level Albuquerque Center
01:44PM 34.4456 -110.5575 246° West 431 496 34,100 -2,580 Descending Albuquerque Center
01:45PM 34.3964 -110.6881 245° Southwest 439 505 30,700 -3,480 Descending Albuquerque Center
01:47PM 34.3383 -110.8197 242° Southwest 452 520 27,000 -3,480 Descending Albuquerque Center
01:48PM 34.2342 -110.9506 226° Southwest 454 522 23,600 -3,180 Descending Albuquerque Center
01:49PM 34.1511 -111.0586 227° Southwest 445 512 20,400 -2,760 Descending Albuquerque Center
01:50PM 34.0722 -111.1589 226° Southwest 421 484 17,900 -2,640 Descending Albuquerque Center
01:51PM 33.9992 -111.2531 227° Southwest 394 453 15,000 -2,040 Descending Albuquerque Center
01:52PM 33.9225 -111.3508 227° Southwest 363 418 13,700 -1,500 Descending Albuquerque Center
01:53PM 33.8567 -111.4267 224° Southwest 305 351 12,000 -1,800 Descending Albuquerque Center
01:54PM 33.7883 -111.4842 215° Southwest 300 345 10,100 -1,680 Descending Albuquerque Center
01:55PM 33.7208 -111.5408 215° Southwest 296 341 8,600 -960 Descending Albuquerque Center
01:56PM 33.6553 -111.5989 216° Southwest 272 313 8,200 -660 Descending Albuquerque Center
01:57PM 33.6006 -111.6444 215° Southwest 245 282 7,300 -780 Descending Albuquerque Center
01:58PM 33.5422 -111.6933 215° Southwest 237 273 6,600 -840 Descending Albuquerque Center
01:59PM 33.4833 -111.7297 207° Southwest 239 275 5,600 -960 Descending Albuquerque Center
02:00PM 33.4436 -111.7950 234° Southwest 232 267 4,700 -1,020 Descending Albuquerque Center
02:01PM 33.4403 -111.8606 267° West 199 229 3,600 -1,260 Descending Albuquerque Center
02:01PM 33.4333 -111.8833 250° West 192 221 3,100 -1,020 Descending Phoenix TRACON
02:02PM 33.4333 -111.9333 270° West 150 173 2,200 -840 Descending Phoenix TRACON
02:03PM 33.4333 -111.9833 270° West 143 165 1,400 -840 Descending Phoenix TRACON
02:06PM 33.4343 -112.0116 270° West  Level Estimated